createdAt,value
2023-03-03T00:00:37.664Z,59.67
2023-03-03T00:01:42.828Z,65.95
2023-03-03T00:03:05.306Z,62.63
2023-03-03T00:04:10.513Z,63.25
2023-03-03T00:05:32.967Z,67.45
2023-03-03T00:06:55.504Z,64.85
2023-03-03T00:08:17.985Z,68.72
2023-03-03T00:09:40.445Z,65.32
2023-03-03T00:11:04.938Z,68.85
2023-03-03T00:12:28.845Z,67.00
2023-03-03T00:13:55.165Z,71.78
2023-03-03T00:15:19.585Z,57.85
2023-03-03T00:16:42.781Z,67.85
2023-03-03T00:18:17.751Z,72.20
2023-03-03T00:19:41.100Z,72.18
2023-03-03T00:21:10.261Z,71.55
2023-03-03T00:22:37.314Z,69.20
2023-03-03T00:24:22.197Z,65.63
2023-03-03T00:25:45.816Z,64.05
2023-03-03T00:27:19.530Z,61.92
2023-03-03T00:28:45.564Z,66.88
2023-03-03T00:30:20.875Z,71.93
2023-03-03T00:31:43.370Z,66.72
2023-03-03T00:33:20.668Z,62.28
2023-03-03T00:34:44.177Z,66.63
2023-03-03T00:36:32.946Z,60.67
2023-03-03T00:37:56.647Z,68.97
2023-03-03T00:39:27.116Z,68.25
2023-03-03T00:40:49.892Z,65.60
2023-03-03T00:42:13.574Z,61.25
2023-03-03T00:43:37.156Z,66.05
2023-03-03T00:45:00.956Z,71.03
2023-03-03T00:46:25.525Z,58.63
2023-03-03T00:47:47.776Z,68.35
2023-03-03T00:49:28.557Z,64.35
2023-03-03T00:50:53.430Z,63.53
2023-03-03T00:52:17.874Z,65.40
2023-03-03T00:53:40.406Z,67.03
2023-03-03T00:55:02.502Z,71.53
2023-03-03T00:56:25.886Z,63.45
2023-03-03T00:57:47.975Z,71.25
2023-03-03T00:59:10.577Z,70.22
2023-03-03T01:00:34.206Z,75.18
2023-03-03T01:01:56.926Z,70.97
2023-03-03T01:03:21.967Z,76.95
2023-03-03T01:04:50.146Z,69.30
2023-03-03T01:06:14.103Z,76.93
2023-03-03T01:07:35.625Z,86.32
2023-03-03T01:08:58.227Z,76.75
2023-03-03T01:10:19.835Z,74.97
2023-03-03T01:11:42.527Z,78.75
2023-03-03T01:13:05.331Z,76.28
2023-03-03T01:14:28.133Z,72.20
2023-03-03T01:15:51.829Z,71.50
2023-03-03T01:17:13.414Z,82.80
2023-03-03T01:18:37.237Z,76.50
2023-03-03T01:20:00.482Z,79.57
2023-03-03T01:21:22.984Z,81.43
2023-03-03T01:22:44.569Z,79.53
2023-03-03T01:24:07.131Z,77.78
2023-03-03T01:25:29.998Z,77.63
2023-03-03T01:26:52.560Z,93.18
2023-03-03T01:28:14.218Z,75.70
2023-03-03T01:29:36.961Z,71.25
2023-03-03T01:31:02.729Z,76.07
2023-03-03T01:32:24.731Z,73.50
2023-03-03T01:33:47.513Z,77.80
2023-03-03T01:35:10.860Z,75.15
2023-03-03T01:36:33.845Z,77.45
2023-03-03T01:37:55.713Z,75.65
2023-03-03T01:39:18.283Z,80.05
2023-03-03T01:40:41.456Z,70.05
2023-03-03T01:42:03.867Z,74.00
2023-03-03T01:43:28.638Z,80.05
2023-03-03T01:45:12.597Z,77.50
2023-03-03T01:46:46.915Z,85.18
2023-03-03T01:48:14.302Z,82.82
2023-03-03T01:49:43.226Z,83.85
2023-03-03T01:51:15.692Z,72.60
2023-03-03T01:52:41.917Z,74.20
2023-03-03T01:54:06.778Z,85.10
2023-03-03T01:55:33.016Z,87.63
2023-03-03T01:57:01.155Z,91.55
2023-03-03T01:58:28.853Z,95.97
2023-03-03T01:59:52.344Z,89.60
2023-03-03T02:01:20.177Z,95.07
2023-03-03T02:02:44.894Z,89.93
2023-03-03T02:04:06.982Z,80.88
2023-03-03T02:05:30.124Z,88.20
2023-03-03T02:07:01.752Z,81.72
2023-03-03T02:08:29.750Z,96.22
2023-03-03T02:09:58.845Z,96.95
2023-03-03T02:11:22.835Z,87.43
2023-03-03T02:12:49.904Z,95.32
2023-03-03T02:14:12.879Z,92.38
2023-03-03T02:15:36.841Z,90.80
2023-03-03T02:16:59.745Z,81.15
2023-03-03T02:18:22.322Z,89.80
2023-03-03T02:19:50.902Z,101.82
2023-03-03T02:21:16.287Z,92.90
2023-03-03T02:22:45.141Z,85.60
2023-03-03T02:24:16.644Z,94.35
2023-03-03T02:25:49.572Z,90.53
2023-03-03T02:27:14.480Z,93.60
2023-03-03T02:28:37.883Z,85.95
2023-03-03T02:30:11.735Z,83.35
2023-03-03T02:31:34.828Z,91.75
2023-03-03T02:32:56.350Z,97.55
2023-03-03T02:34:18.960Z,101.05
2023-03-03T02:35:41.601Z,87.47
2023-03-03T02:37:04.888Z,81.55
2023-03-03T02:38:29.820Z,86.40
2023-03-03T02:39:52.354Z,86.30
2023-03-03T02:41:21.079Z,85.32
2023-03-03T02:42:47.759Z,81.00
2023-03-03T02:44:12.204Z,82.80
2023-03-03T02:45:33.783Z,76.38
2023-03-03T02:46:57.371Z,86.35
2023-03-03T02:48:19.014Z,70.10
2023-03-03T02:49:42.847Z,79.90
2023-03-03T02:51:04.866Z,79.68
2023-03-03T02:52:27.365Z,85.03
2023-03-03T02:53:49.603Z,74.68
2023-03-03T02:55:12.127Z,76.75
2023-03-03T02:56:35.129Z,77.93
2023-03-03T02:57:59.035Z,85.53
2023-03-03T02:59:21.550Z,79.97
2023-03-03T03:00:43.167Z,82.88
2023-03-03T03:02:07.242Z,82.07
2023-03-03T03:03:28.834Z,77.93
2023-03-03T03:04:51.364Z,85.47
2023-03-03T03:06:13.139Z,82.90
2023-03-03T03:07:35.698Z,68.18
2023-03-03T03:08:58.210Z,79.47
2023-03-03T03:10:19.756Z,76.90
2023-03-03T03:11:42.677Z,77.40
2023-03-03T03:12:44.260Z,72.30
2023-03-03T03:13:48.089Z,84.80
2023-03-03T03:14:49.644Z,73.63
2023-03-03T03:15:52.584Z,91.85
2023-03-03T03:16:54.224Z,80.65
2023-03-03T03:17:56.735Z,84.78
2023-03-03T03:18:59.712Z,88.40
2023-03-03T03:20:02.210Z,80.70
2023-03-03T03:21:08.460Z,76.32
2023-03-03T03:22:10.983Z,76.20
2023-03-03T03:23:23.522Z,86.95
2023-03-03T03:24:25.236Z,86.72
2023-03-03T03:25:27.724Z,72.20
2023-03-03T03:26:29.747Z,88.63
2023-03-03T03:27:32.328Z,82.68
2023-03-03T03:28:34.325Z,71.68
2023-03-03T03:29:38.216Z,79.97
2023-03-03T03:30:40.250Z,76.70
2023-03-03T03:31:44.095Z,91.65
2023-03-03T03:32:45.801Z,87.18
2023-03-03T03:33:48.936Z,94.07
2023-03-03T03:34:50.731Z,94.65
2023-03-03T03:35:53.373Z,72.18
2023-03-03T03:36:54.940Z,97.80
2023-03-03T03:37:57.462Z,81.45
2023-03-03T03:38:58.987Z,86.05
2023-03-03T03:40:04.884Z,91.85
2023-03-03T03:41:07.656Z,88.82
2023-03-03T03:42:11.373Z,86.03
2023-03-03T03:43:13.156Z,78.32
2023-03-03T03:44:15.972Z,83.15
2023-03-03T03:45:18.984Z,75.07
2023-03-03T03:46:21.588Z,89.25
2023-03-03T03:47:23.706Z,80.03
2023-03-03T03:48:26.481Z,85.05
2023-03-03T03:49:28.149Z,69.97
2023-03-03T03:50:30.660Z,69.10
2023-03-03T03:51:33.881Z,79.35
2023-03-03T03:52:36.432Z,72.47
2023-03-03T03:53:38.658Z,70.35
2023-03-03T03:54:41.338Z,77.60
2023-03-03T03:55:42.909Z,74.15
2023-03-03T03:56:45.444Z,70.32
2023-03-03T03:57:47.685Z,68.82
2023-03-03T03:58:54.579Z,68.90
2023-03-03T03:59:56.233Z,74.63
2023-03-03T04:01:04.855Z,61.47
2023-03-03T04:02:06.551Z,71.70
2023-03-03T04:03:19.285Z,73.45
2023-03-03T04:04:21.008Z,74.10
2023-03-03T04:05:23.684Z,72.13
2023-03-03T04:06:25.580Z,68.97
2023-03-03T04:07:28.120Z,71.20
2023-03-03T04:08:29.691Z,73.25
2023-03-03T04:09:32.217Z,66.85
2023-03-03T04:10:33.739Z,74.82
2023-03-03T04:11:36.316Z,70.10
2023-03-03T04:12:38.614Z,66.35
2023-03-03T04:13:41.440Z,70.93
2023-03-03T04:14:44.641Z,73.55
2023-03-03T04:15:47.513Z,69.18
2023-03-03T04:16:50.692Z,58.28
2023-03-03T04:17:53.164Z,60.35
2023-03-03T04:18:54.760Z,65.22
2023-03-03T04:19:57.996Z,60.67
2023-03-03T04:20:59.744Z,64.05
2023-03-03T04:22:12.551Z,61.30
2023-03-03T04:23:23.263Z,63.72
2023-03-03T04:24:26.148Z,56.63
2023-03-03T04:25:35.250Z,60.33
2023-03-03T04:26:37.772Z,70.68
2023-03-03T04:27:39.291Z,65.22
2023-03-03T04:28:41.929Z,59.13
2023-03-03T04:29:43.526Z,70.47
2023-03-03T04:30:56.043Z,63.83
2023-03-03T04:31:58.994Z,58.42
2023-03-03T04:33:01.481Z,60.20
2023-03-03T04:34:02.993Z,61.67
2023-03-03T04:35:08.528Z,41.25
2023-03-03T04:36:11.322Z,63.28
2023-03-03T04:37:12.951Z,69.95
2023-03-03T04:38:15.440Z,58.38
2023-03-03T04:39:17.027Z,69.07
2023-03-03T04:40:19.671Z,59.00
2023-03-03T04:41:21.353Z,60.10
2023-03-03T04:42:23.852Z,61.45
2023-03-03T04:43:25.513Z,60.67
2023-03-03T04:44:28.034Z,54.30
2023-03-03T04:45:29.545Z,57.53
2023-03-03T04:46:32.461Z,59.67
2023-03-03T04:47:35.711Z,45.60
2023-03-03T04:48:38.338Z,60.95
2023-03-03T04:49:39.881Z,55.67
2023-03-03T04:50:42.841Z,52.85
2023-03-03T04:51:44.358Z,57.05
2023-03-03T04:52:46.866Z,48.38
2023-03-03T04:53:51.131Z,59.70
2023-03-03T04:54:54.878Z,54.75
2023-03-03T04:55:57.914Z,62.40
2023-03-03T04:56:59.559Z,59.20
2023-03-03T04:58:04.636Z,61.40
2023-03-03T04:59:06.386Z,63.15
2023-03-03T05:00:10.076Z,63.08
2023-03-03T05:01:16.590Z,60.55
2023-03-03T05:02:19.511Z,63.95
2023-03-03T05:03:23.233Z,58.25
2023-03-03T05:04:25.863Z,59.15
2023-03-03T05:05:38.334Z,57.00
2023-03-03T05:06:41.942Z,61.35
2023-03-03T05:07:44.430Z,62.95
2023-03-03T05:08:46.723Z,59.40
2023-03-03T05:09:49.222Z,52.88
2023-03-03T05:10:52.254Z,62.08
2023-03-03T05:11:55.090Z,52.83
2023-03-03T05:12:56.607Z,51.03
2023-03-03T05:13:59.389Z,54.65
2023-03-03T05:15:01.420Z,24.65
2023-03-03T05:16:14.638Z,50.03
2023-03-03T05:17:16.398Z,57.10
2023-03-03T05:18:19.825Z,57.58
2023-03-03T05:19:23.287Z,59.88
2023-03-03T05:20:26.335Z,50.20
2023-03-03T05:21:27.866Z,43.10
2023-03-03T05:22:30.334Z,54.17
2023-03-03T05:23:31.871Z,49.35
2023-03-03T05:24:34.450Z,48.03
2023-03-03T05:25:36.014Z,47.63
2023-03-03T05:26:48.469Z,52.08
2023-03-03T05:27:50.144Z,55.15
2023-03-03T05:28:52.611Z,60.20
2023-03-03T05:29:54.321Z,50.50
2023-03-03T05:30:56.797Z,55.45
2023-03-03T05:31:58.446Z,58.42
2023-03-03T05:33:01.477Z,56.75
2023-03-03T05:34:04.023Z,55.08
2023-03-03T05:35:07.739Z,65.28
2023-03-03T05:36:16.996Z,52.08
2023-03-03T05:37:28.624Z,56.08
2023-03-03T05:38:41.143Z,48.28
2023-03-03T05:39:44.568Z,55.72
2023-03-03T05:40:48.086Z,57.22
2023-03-03T05:41:49.650Z,52.47
2023-03-03T05:42:52.678Z,52.50
2023-03-03T05:43:54.275Z,49.28
2023-03-03T05:44:56.805Z,52.38
2023-03-03T05:45:58.864Z,53.70
2023-03-03T05:47:01.447Z,53.90
2023-03-03T05:48:04.732Z,52.88
2023-03-03T05:49:07.234Z,49.13
2023-03-03T05:50:12.141Z,44.13
2023-03-03T05:51:14.784Z,52.63
2023-03-03T05:52:16.680Z,46.92
2023-03-03T05:53:21.272Z,54.50
2023-03-03T05:54:23.074Z,50.70
2023-03-03T05:55:26.123Z,46.60
2023-03-03T05:56:27.798Z,44.50
2023-03-03T05:57:32.606Z,47.30
2023-03-03T05:58:34.305Z,49.65
2023-03-03T05:59:36.793Z,47.95
2023-03-03T06:00:38.403Z,48.58
2023-03-03T06:01:42.470Z,48.80
2023-03-03T06:02:44.293Z,45.22
2023-03-03T06:03:46.801Z,52.85
2023-03-03T06:04:48.344Z,41.63
2023-03-03T06:05:56.618Z,48.63
2023-03-03T06:06:58.238Z,46.17
2023-03-03T06:08:00.880Z,47.42
2023-03-03T06:09:02.491Z,56.45
2023-03-03T06:10:14.989Z,46.70
2023-03-03T06:11:18.506Z,51.50
2023-03-03T06:12:22.187Z,53.83
2023-03-03T06:13:24.185Z,52.70
2023-03-03T06:14:29.515Z,46.35
2023-03-03T06:15:32.264Z,47.83
2023-03-03T06:16:33.881Z,49.95
2023-03-03T06:17:36.631Z,46.60
2023-03-03T06:18:38.338Z,53.30
2023-03-03T06:19:41.391Z,49.33
2023-03-03T06:20:42.927Z,64.38
2023-03-03T06:21:46.817Z,42.95
2023-03-03T06:22:48.412Z,46.53
2023-03-03T06:23:50.907Z,46.08
2023-03-03T06:24:52.605Z,48.28
2023-03-03T06:25:55.127Z,43.30
2023-03-03T06:26:57.724Z,44.70
2023-03-03T06:28:00.211Z,47.05
2023-03-03T06:29:01.959Z,43.90
2023-03-03T06:30:05.064Z,53.05
2023-03-03T06:31:16.654Z,45.33
2023-03-03T06:32:19.292Z,46.78
2023-03-03T06:33:21.016Z,43.92
2023-03-03T06:34:33.541Z,40.17
2023-03-03T06:35:41.525Z,45.67
2023-03-03T06:36:44.613Z,42.45
2023-03-03T06:37:50.598Z,36.17
2023-03-03T06:38:53.328Z,43.22
2023-03-03T06:40:06.293Z,38.97
2023-03-03T06:41:08.790Z,36.13
2023-03-03T06:42:10.673Z,33.20
2023-03-03T06:43:13.209Z,33.47
2023-03-03T06:44:28.861Z,39.03
2023-03-03T06:45:38.163Z,43.97
2023-03-03T06:46:40.666Z,37.45
2023-03-03T06:47:42.199Z,40.97
2023-03-03T06:48:45.075Z,35.20
2023-03-03T06:49:46.691Z,47.00
2023-03-03T06:50:49.306Z,40.10
2023-03-03T06:51:50.959Z,42.60
2023-03-03T06:53:04.008Z,41.92
2023-03-03T06:54:11.772Z,41.13
2023-03-03T06:55:24.645Z,41.90
2023-03-03T06:56:27.280Z,32.58
2023-03-03T06:57:31.769Z,36.70
2023-03-03T06:58:36.002Z,37.00
2023-03-03T06:59:38.720Z,37.40
2023-03-03T07:00:42.170Z,44.88
2023-03-03T07:01:48.583Z,41.47
2023-03-03T07:02:53.890Z,41.97
2023-03-03T07:03:56.421Z,41.55
2023-03-03T07:04:59.415Z,41.08
2023-03-03T07:06:03.540Z,34.20
2023-03-03T07:07:14.951Z,37.83
2023-03-03T07:08:20.947Z,43.28
2023-03-03T07:09:25.528Z,41.03
2023-03-03T07:10:30.075Z,39.53
2023-03-03T07:11:33.180Z,41.63
2023-03-03T07:12:36.589Z,45.33
2023-03-03T07:13:47.099Z,38.78
2023-03-03T07:14:55.617Z,37.72
2023-03-03T07:16:06.632Z,32.05
2023-03-03T07:17:14.993Z,42.60
2023-03-03T07:18:33.473Z,34.85
2023-03-03T07:19:36.216Z,37.83
2023-03-03T07:20:41.016Z,38.80
2023-03-03T07:21:42.856Z,39.40
2023-03-03T07:22:45.457Z,35.55
2023-03-03T07:24:02.173Z,36.83
2023-03-03T07:25:19.541Z,40.30
2023-03-03T07:26:28.736Z,43.38
2023-03-03T07:27:32.766Z,42.08
2023-03-03T07:28:34.522Z,44.15
2023-03-03T07:29:41.131Z,45.28
2023-03-03T07:30:43.826Z,46.55
2023-03-03T07:31:57.759Z,42.80
2023-03-03T07:33:00.527Z,49.03
2023-03-03T07:34:05.451Z,50.60
2023-03-03T07:35:28.164Z,41.47
2023-03-03T07:36:33.588Z,39.20
2023-03-03T07:37:38.996Z,51.60
2023-03-03T07:38:47.843Z,44.47
2023-03-03T07:39:50.762Z,45.03
2023-03-03T07:40:55.082Z,48.15
2023-03-03T07:42:08.591Z,43.55
2023-03-03T07:43:31.554Z,43.85
2023-03-03T07:44:37.543Z,47.85
2023-03-03T07:45:39.816Z,48.17
2023-03-03T07:46:52.636Z,42.97
2023-03-03T07:48:09.174Z,56.58
2023-03-03T07:49:22.844Z,46.40
2023-03-03T07:50:24.622Z,50.88
2023-03-03T07:51:29.561Z,52.90
2023-03-03T07:52:39.108Z,49.58
2023-03-03T07:53:41.637Z,49.97
2023-03-03T07:54:47.308Z,48.17
2023-03-03T07:55:50.176Z,46.20
2023-03-03T07:56:53.268Z,49.15
2023-03-03T07:57:59.158Z,54.15
2023-03-03T07:59:08.472Z,48.80
2023-03-03T08:00:44.626Z,42.40
2023-03-03T08:01:49.634Z,45.15
2023-03-03T08:02:59.221Z,45.78
2023-03-03T08:04:00.899Z,45.58
2023-03-03T08:05:26.404Z,41.55
2023-03-03T08:06:40.223Z,50.63
2023-03-03T08:07:42.703Z,51.05
2023-03-03T08:08:47.253Z,42.50
2023-03-03T08:09:52.065Z,43.95
2023-03-03T08:10:56.452Z,48.28
2023-03-03T08:12:02.968Z,51.05
2023-03-03T08:13:18.584Z,48.08
2023-03-03T08:14:26.105Z,39.55
2023-03-03T08:15:37.619Z,36.75
2023-03-03T08:16:41.046Z,41.45
2023-03-03T08:17:45.345Z,37.50
2023-03-03T08:18:50.473Z,48.50
2023-03-03T08:19:53.722Z,52.08
2023-03-03T08:20:58.692Z,41.45
2023-03-03T08:22:09.458Z,44.53
2023-03-03T08:23:12.615Z,48.97
2023-03-03T08:24:15.477Z,52.80
2023-03-03T08:25:17.246Z,45.80
2023-03-03T08:26:22.083Z,51.47
2023-03-03T08:27:23.682Z,52.70
2023-03-03T08:28:26.522Z,54.95
2023-03-03T08:29:28.134Z,54.35
2023-03-03T08:30:36.508Z,60.08
2023-03-03T08:31:41.938Z,47.33
2023-03-03T08:32:43.858Z,57.33
2023-03-03T08:33:54.721Z,58.58
2023-03-03T08:34:56.232Z,60.00
2023-03-03T08:36:01.322Z,53.03
2023-03-03T08:37:03.493Z,59.15
2023-03-03T08:38:19.701Z,57.47
2023-03-03T08:39:21.427Z,56.55
2023-03-03T08:40:25.563Z,50.55
2023-03-03T08:41:29.540Z,58.40
2023-03-03T08:42:37.545Z,49.80
2023-03-03T08:43:40.079Z,62.10
2023-03-03T08:44:42.998Z,52.50
2023-03-03T08:45:45.593Z,51.63
2023-03-03T08:46:48.147Z,49.97
2023-03-03T08:47:49.817Z,50.25
2023-03-03T08:48:53.252Z,57.72
2023-03-03T08:49:55.186Z,52.58
2023-03-03T08:50:57.930Z,61.00
2023-03-03T08:52:10.458Z,53.65
2023-03-03T08:53:25.209Z,58.30
2023-03-03T08:54:26.849Z,45.83
2023-03-03T08:55:35.636Z,50.78
2023-03-03T08:56:38.651Z,57.67
2023-03-03T08:57:41.500Z,57.38
2023-03-03T08:59:01.180Z,50.78
2023-03-03T09:00:03.921Z,60.25
2023-03-03T09:01:07.698Z,54.28
2023-03-03T09:02:09.367Z,52.55
2023-03-03T09:03:12.056Z,56.70
2023-03-03T09:04:14.690Z,51.80
2023-03-03T09:05:17.666Z,56.55
2023-03-03T09:06:20.548Z,61.15
2023-03-03T09:07:27.592Z,57.35
2023-03-03T09:08:30.538Z,61.47
2023-03-03T09:09:32.114Z,59.08
2023-03-03T09:10:39.388Z,60.75
2023-03-03T09:11:43.426Z,63.33
2023-03-03T09:12:49.196Z,58.03
2023-03-03T09:13:53.147Z,66.95
2023-03-03T09:14:59.559Z,64.75
2023-03-03T09:16:14.924Z,57.17
2023-03-03T09:17:25.943Z,67.18
2023-03-03T09:18:36.302Z,60.38
2023-03-03T09:19:37.811Z,58.45
2023-03-03T09:20:41.837Z,66.43
2023-03-03T09:21:43.502Z,67.70
2023-03-03T09:22:46.140Z,67.30
2023-03-03T09:23:54.110Z,61.92
2023-03-03T09:24:59.350Z,60.20
2023-03-03T09:26:28.042Z,69.25
2023-03-03T09:27:36.234Z,58.38
2023-03-03T09:28:38.115Z,59.17
2023-03-03T09:29:41.595Z,62.10
2023-03-03T09:30:48.742Z,63.28
2023-03-03T09:31:56.297Z,62.60
2023-03-03T09:32:58.326Z,61.22
2023-03-03T09:34:01.976Z,56.45
2023-03-03T09:35:31.008Z,59.67
2023-03-03T09:36:37.582Z,59.58
2023-03-03T09:37:44.207Z,60.10
2023-03-03T09:38:58.026Z,60.15
2023-03-03T09:40:01.848Z,64.22
2023-03-03T09:41:34.979Z,55.95
2023-03-03T09:43:00.602Z,67.53
2023-03-03T09:44:25.141Z,67.53
2023-03-03T09:45:37.717Z,63.65
2023-03-03T09:46:52.157Z,61.08
2023-03-03T09:48:18.508Z,63.17
2023-03-03T09:49:31.891Z,62.88
2023-03-03T09:50:45.383Z,57.58
2023-03-03T09:52:01.930Z,65.63
2023-03-03T09:53:19.212Z,62.83
2023-03-03T09:54:39.529Z,58.85
2023-03-03T09:55:49.372Z,63.30
2023-03-03T09:56:56.457Z,60.38
2023-03-03T09:58:16.051Z,54.65
2023-03-03T09:59:44.852Z,59.47
2023-03-03T10:01:00.474Z,54.92
2023-03-03T10:02:32.869Z,50.13
2023-03-03T10:03:48.137Z,57.55
2023-03-03T10:05:14.619Z,54.80
2023-03-03T10:06:26.400Z,51.03
2023-03-03T10:07:43.871Z,46.78
2023-03-03T10:09:11.359Z,53.13
2023-03-03T10:10:26.982Z,57.45
2023-03-03T10:11:35.655Z,45.72
2023-03-03T10:12:46.460Z,53.80
2023-03-03T10:14:07.612Z,54.55
2023-03-03T10:15:21.982Z,58.08
2023-03-03T10:16:44.009Z,49.15
2023-03-03T10:17:50.897Z,52.33
2023-03-03T10:18:59.277Z,49.13
2023-03-03T10:20:13.236Z,49.58
2023-03-03T10:21:24.911Z,54.78
2023-03-03T10:22:36.593Z,55.47
2023-03-03T10:23:58.718Z,50.20
2023-03-03T10:25:15.663Z,54.38
2023-03-03T10:26:41.941Z,41.63
2023-03-03T10:28:06.216Z,55.20
2023-03-03T10:29:30.860Z,43.92
2023-03-03T10:30:58.529Z,47.58
2023-03-03T10:32:27.217Z,47.95
2023-03-03T10:33:38.171Z,50.47
2023-03-03T10:35:03.928Z,42.30
2023-03-03T10:36:26.026Z,48.22
2023-03-03T10:37:38.010Z,45.92
2023-03-03T10:38:55.332Z,40.60
2023-03-03T10:40:10.916Z,42.00
2023-03-03T10:41:35.122Z,45.95
2023-03-03T10:42:55.945Z,43.72
2023-03-03T10:44:08.679Z,50.38
2023-03-03T10:45:35.035Z,42.97
2023-03-03T10:46:52.962Z,40.70
2023-03-03T10:48:16.047Z,44.35
2023-03-03T10:49:29.841Z,40.92
2023-03-03T10:50:41.556Z,45.05
2023-03-03T10:52:10.080Z,39.67
2023-03-03T10:53:25.945Z,48.47
2023-03-03T10:54:40.513Z,43.15
2023-03-03T10:55:52.248Z,41.78
2023-03-03T10:57:05.154Z,36.67
2023-03-03T10:58:46.152Z,37.03
2023-03-03T11:00:02.563Z,44.53
2023-03-03T11:01:24.117Z,40.22
2023-03-03T11:02:33.124Z,37.20
2023-03-03T11:03:56.050Z,43.40
2023-03-03T11:05:24.387Z,40.55
2023-03-03T11:06:36.833Z,45.28
2023-03-03T11:07:43.989Z,44.13
2023-03-03T11:08:53.770Z,40.60
2023-03-03T11:10:06.046Z,44.22
2023-03-03T11:11:16.380Z,39.33
2023-03-03T11:12:30.126Z,41.30
2023-03-03T11:13:43.327Z,40.03
2023-03-03T11:14:50.904Z,42.58
2023-03-03T11:16:19.630Z,43.20
2023-03-03T11:17:31.228Z,39.35
2023-03-03T11:18:44.745Z,36.55
2023-03-03T11:20:02.233Z,38.20
2023-03-03T11:21:25.779Z,40.47
2023-03-03T11:22:38.257Z,40.15
2023-03-03T11:23:53.337Z,36.28
2023-03-03T11:25:07.776Z,40.00
2023-03-03T11:26:17.706Z,40.55
2023-03-03T11:27:33.999Z,40.17
2023-03-03T11:28:56.102Z,47.90
2023-03-03T11:30:30.041Z,39.15
2023-03-03T11:31:44.267Z,38.70
2023-03-03T11:32:51.852Z,40.38
2023-03-03T11:34:02.288Z,37.33
2023-03-03T11:35:20.001Z,44.90
2023-03-03T11:36:28.482Z,39.85
2023-03-03T11:37:41.633Z,42.60
2023-03-03T11:38:57.588Z,47.70
2023-03-03T11:40:09.832Z,41.90
2023-03-03T11:41:20.758Z,40.80
2023-03-03T11:42:28.436Z,41.45
2023-03-03T11:43:39.634Z,40.78
2023-03-03T11:44:47.149Z,46.05
2023-03-03T11:45:54.352Z,39.35
2023-03-03T11:47:01.635Z,44.35
2023-03-03T11:48:13.249Z,39.72
2023-03-03T11:49:22.557Z,45.70
2023-03-03T11:50:29.097Z,42.80
2023-03-03T11:51:42.636Z,40.72
2023-03-03T11:52:53.142Z,42.50
2023-03-03T11:53:59.523Z,36.08
2023-03-03T11:55:10.155Z,47.67
2023-03-03T11:56:22.911Z,40.65
2023-03-03T11:57:30.157Z,44.13
2023-03-03T11:58:39.798Z,47.63
2023-03-03T11:59:49.141Z,42.67
2023-03-03T12:00:55.132Z,45.22
2023-03-03T12:02:23.333Z,41.00
2023-03-03T12:03:32.635Z,40.20
2023-03-03T12:04:50.951Z,38.03
2023-03-03T12:06:02.707Z,37.38
2023-03-03T12:07:19.656Z,43.35
2023-03-03T12:08:37.773Z,46.03
2023-03-03T12:09:54.952Z,39.22
2023-03-03T12:11:01.225Z,42.40
2023-03-03T12:12:08.687Z,43.80
2023-03-03T12:13:23.435Z,45.35
2023-03-03T12:14:40.863Z,41.28
2023-03-03T12:15:52.415Z,42.40
2023-03-03T12:16:58.159Z,47.22
2023-03-03T12:18:26.596Z,41.50
2023-03-03T12:19:35.824Z,46.30
2023-03-03T12:20:50.342Z,45.70
2023-03-03T12:22:05.790Z,43.17
2023-03-03T12:23:26.310Z,42.50
2023-03-03T12:24:44.451Z,49.28
2023-03-03T12:25:55.909Z,41.00
2023-03-03T12:27:10.564Z,49.25
2023-03-03T12:28:19.921Z,45.83
2023-03-03T12:29:28.740Z,47.78
2023-03-03T12:30:52.018Z,37.10
2023-03-03T12:32:03.923Z,40.55
2023-03-03T12:33:31.334Z,45.13
2023-03-03T12:34:41.761Z,47.35
2023-03-03T12:35:52.892Z,40.38
2023-03-03T12:37:22.364Z,53.72
2023-03-03T12:38:36.187Z,47.40
2023-03-03T12:39:48.552Z,44.40
2023-03-03T12:40:58.979Z,40.10
2023-03-03T12:42:07.652Z,44.97
2023-03-03T12:43:24.424Z,45.17
2023-03-03T12:44:35.941Z,44.25
2023-03-03T12:45:50.542Z,38.80
2023-03-03T12:47:01.827Z,38.17
2023-03-03T12:48:11.001Z,43.22
2023-03-03T12:49:20.336Z,42.95
2023-03-03T12:50:43.303Z,34.55
2023-03-03T12:52:02.263Z,41.42
2023-03-03T12:53:17.462Z,39.80
2023-03-03T12:54:37.169Z,29.75
2023-03-03T12:55:49.562Z,37.30
2023-03-03T12:56:55.201Z,42.38
2023-03-03T12:58:06.175Z,38.83
2023-03-03T12:59:17.160Z,35.60
2023-03-03T13:00:32.847Z,30.08
2023-03-03T13:01:58.352Z,34.85
2023-03-03T13:03:14.807Z,34.38
2023-03-03T13:04:32.820Z,35.67
2023-03-03T13:05:48.646Z,38.17
2023-03-03T13:06:56.395Z,31.85
2023-03-03T13:08:20.899Z,35.65
2023-03-03T13:09:47.064Z,36.67
2023-03-03T13:10:58.219Z,42.63
2023-03-03T13:12:19.344Z,41.70
2023-03-03T13:13:28.156Z,39.28
2023-03-03T13:14:37.451Z,36.85
2023-03-03T13:15:55.197Z,30.92
2023-03-03T13:17:10.502Z,29.45
2023-03-03T13:18:30.628Z,32.53
2023-03-03T13:19:41.660Z,30.40
2023-03-03T13:20:52.281Z,36.67
2023-03-03T13:22:01.380Z,31.98
2023-03-03T13:23:08.839Z,38.53
2023-03-03T13:24:19.639Z,34.60
2023-03-03T13:25:42.061Z,40.05
2023-03-03T13:26:48.791Z,31.65
2023-03-03T13:27:56.370Z,39.17
2023-03-03T13:29:05.675Z,32.42
2023-03-03T13:30:16.765Z,35.92
2023-03-03T13:31:27.764Z,33.30
2023-03-03T13:32:37.945Z,42.55
2023-03-03T13:33:48.856Z,34.55
2023-03-03T13:35:00.684Z,32.63
2023-03-03T13:36:07.269Z,30.08
2023-03-03T13:37:16.976Z,42.70
2023-03-03T13:38:24.051Z,32.88
2023-03-03T13:39:30.892Z,33.00
2023-03-03T13:40:41.394Z,31.90
2023-03-03T13:41:51.674Z,31.30
2023-03-03T13:42:57.815Z,35.08
2023-03-03T13:44:04.876Z,35.38
2023-03-03T13:45:16.338Z,36.00
2023-03-03T13:46:29.546Z,35.25
2023-03-03T13:47:39.399Z,30.35
2023-03-03T13:48:56.962Z,35.95
2023-03-03T13:50:18.289Z,39.78
2023-03-03T13:51:29.341Z,35.03
2023-03-03T13:52:34.901Z,30.77
2023-03-03T13:53:49.643Z,34.53
2023-03-03T13:55:14.528Z,40.58
2023-03-03T13:56:44.612Z,36.95
2023-03-03T13:58:04.411Z,34.60
2023-03-03T13:59:18.429Z,34.80
2023-03-03T14:00:31.896Z,30.63
2023-03-03T14:01:48.134Z,34.13
2023-03-03T14:03:09.573Z,39.63
2023-03-03T14:04:17.624Z,39.17
2023-03-03T14:05:29.691Z,39.63
2023-03-03T14:06:32.831Z,38.22
2023-03-03T14:07:38.806Z,37.38
2023-03-03T14:09:01.577Z,37.92
2023-03-03T14:10:10.802Z,37.20
2023-03-03T14:11:20.655Z,26.88
2023-03-03T14:12:29.778Z,30.95
2023-03-03T14:13:40.667Z,39.40
2023-03-03T14:14:53.963Z,40.63
2023-03-03T14:15:59.651Z,38.25
2023-03-03T14:17:05.343Z,39.03
2023-03-03T14:18:22.735Z,37.78
2023-03-03T14:19:30.863Z,38.65
2023-03-03T14:20:38.977Z,36.70
2023-03-03T14:21:47.872Z,39.03
2023-03-03T14:22:54.627Z,46.60
2023-03-03T14:24:04.442Z,34.42
2023-03-03T14:25:09.781Z,34.72
2023-03-03T14:26:14.031Z,36.72
2023-03-03T14:27:26.232Z,42.20
2023-03-03T14:28:40.422Z,33.33
2023-03-03T14:29:42.989Z,44.95
2023-03-03T14:30:45.831Z,35.40
2023-03-03T14:31:47.743Z,41.97
2023-03-03T14:33:01.386Z,37.20
2023-03-03T14:34:30.937Z,39.10
2023-03-03T14:35:36.426Z,40.10
2023-03-03T14:36:42.156Z,45.85
2023-03-03T14:37:45.496Z,45.22
2023-03-03T14:38:51.610Z,39.97
2023-03-03T14:40:17.030Z,37.25
2023-03-03T14:41:22.918Z,46.03
2023-03-03T14:42:33.843Z,42.00
2023-03-03T14:43:57.660Z,41.22
2023-03-03T14:45:29.423Z,36.55
2023-03-03T14:46:36.472Z,41.70
2023-03-03T14:47:45.947Z,41.92
2023-03-03T14:48:52.395Z,45.85
2023-03-03T14:49:59.910Z,44.72
2023-03-03T14:51:25.384Z,42.75
2023-03-03T14:52:29.615Z,37.35
2023-03-03T14:53:35.520Z,40.40
2023-03-03T14:54:41.362Z,43.13
2023-03-03T14:55:46.186Z,41.85
2023-03-03T14:57:00.879Z,36.05
2023-03-03T14:58:04.176Z,41.45
2023-03-03T14:59:17.953Z,42.38
2023-03-03T15:00:35.925Z,40.42
2023-03-03T15:01:43.012Z,43.33
2023-03-03T15:02:58.764Z,43.70
2023-03-03T15:04:02.872Z,38.50
2023-03-03T15:05:21.984Z,38.15
2023-03-03T15:06:37.204Z,43.13
2023-03-03T15:07:40.014Z,37.92
2023-03-03T15:08:43.327Z,33.72
2023-03-03T15:09:51.389Z,35.08
2023-03-03T15:10:53.088Z,38.40
2023-03-03T15:11:57.074Z,39.97
2023-03-03T15:13:09.221Z,35.80
2023-03-03T15:14:14.852Z,40.22
2023-03-03T15:15:20.227Z,38.40
2023-03-03T15:16:23.301Z,43.92
2023-03-03T15:17:34.504Z,40.05
2023-03-03T15:19:00.371Z,41.17
2023-03-03T15:20:32.252Z,45.67
2023-03-03T15:21:39.753Z,41.97
2023-03-03T15:22:49.407Z,39.92